Nyk Olympus — 3EOS7 — position and weather

sailwx.info

Track history (hours):
 
Tides and Currents Weather Stations Pressure Air Temp Water Temp Dewpoint Dewpoint Depression Visibility Wind Speed Wind Dir Waves Ship Positions

Nyk Olympus

Last reported at 2014-Aug-20 10:33 UTC. Time now 2014-Aug-20 14:41 UTC.
Position N 37°35' E 007°18'.

Length 335 m; draft 13.2 m.

Type: Ship. MMSI: 372478000.

Date/timePositionNaut miles runAvg speedWind from/ knotsBaromVisibWave heightAir tempDewpointWater temp
2014-Aug-20 10:33N 37°35' E 007°18'2217.6
2014-Aug-20 09:18N 37°37' E 007°46'1417.3
2014-Aug-20 08:31N 37°39' E 008°03'1718.1
2014-Aug-20 07:33N 37°41' E 008°25'1817.9
2014-Aug-20 06:33N 37°42' E 008°48'1717.5
2014-Aug-20 05:33N 37°42' E 009°10'1717.3
2014-Aug-20 04:33N 37°41' E 009°31'1817.5
2014-Aug-20 03:32N 37°40' E 009°54'1717.4
2014-Aug-20 02:33N 37°39' E 010°15'1818.1
2014-Aug-20 01:32N 37°34' E 010°38'7918.4
2014-Aug-19 21:15N 37°03' E 012°09'1318.5
2014-Aug-19 20:33N 36°59' E 012°24'1918.6
2014-Aug-19 19:33N 36°53' E 012°46'2018.6
2014-Aug-19 18:31N 36°47' E 013°09'2518.4
2014-Aug-19 17:10N 36°40' E 013°39'1118.5
2014-Aug-19 16:33N 36°37' E 013°52'1818.4
2014-Aug-19 15:33N 36°31' E 014°14'1818.4
2014-Aug-19 14:34N 36°25' E 014°36'1918.7
2014-Aug-19 13:33N 36°20' E 014°58'1918.8
2014-Aug-19 12:33N 36°14' E 015°20'2018.8
2014-Aug-19 11:30N 36°08' E 015°44'59419.0
2014-Aug-18 04:16N 33°08' E 027°11'3319.4
2014-Aug-18 02:34N 32°58' E 027°49'4519.3
2014-Aug-18 00:15N 32°44' E 028°40'11019.4
2014-Aug-17 18:33N 32°10' E 030°44'1818.2
2014-Aug-17 17:33N 32°05' E 031°05'1818.5
2014-Aug-17 16:33N 31°59' E 031°26'1818.2
2014-Aug-17 15:33N 31°54' E 031°46'1818.2
2014-Aug-17 14:33N 31°42' E 032°02'1818.5
2014-Aug-17 13:33N 31°30' E 032°18'1614.4
2014-Aug-17 12:28N 31°14' E 032°21'9 9.6
2014-Aug-17 11:34N 31°06' E 032°18'1110.5
2014-Aug-17 10:29N 30°54' E 032°19'1010.3
2014-Aug-17 09:33N 30°45' E 032°20'10 9.6
2014-Aug-17 08:29N 30°35' E 032°18'25 8.0
2014-Aug-17 05:22N 30°13' E 032°33'  
Track history (hours):
 
Tides and Currents Weather Stations Pressure Air Temp Water Temp Dewpoint Dewpoint Depression Visibility Wind Speed Wind Dir Waves Ship Positions

Nyk Olympus

Last reported at 2014-Aug-20 10:33 UTC. Time now 2014-Aug-20 14:41 UTC.
Position N 37°35' E 007°18'.

Length 335 m; draft 13.2 m.

Type: Ship. MMSI: 372478000.

Date/timePositionNaut miles runAvg speedWind from/ knotsBaromVisibWave heightAir tempDewpointWater temp
2014-Aug-20 10:33N 37°35' E 007°18'2217.6
2014-Aug-20 09:18N 37°37' E 007°46'1417.3
2014-Aug-20 08:31N 37°39' E 008°03'1718.1
2014-Aug-20 07:33N 37°41' E 008°25'1817.9
2014-Aug-20 06:33N 37°42' E 008°48'1717.5
2014-Aug-20 05:33N 37°42' E 009°10'1717.3
2014-Aug-20 04:33N 37°41' E 009°31'1817.5
2014-Aug-20 03:32N 37°40' E 009°54'1717.4
2014-Aug-20 02:33N 37°39' E 010°15'1818.1
2014-Aug-20 01:32N 37°34' E 010°38'7918.4
2014-Aug-19 21:15N 37°03' E 012°09'1318.5
2014-Aug-19 20:33N 36°59' E 012°24'1918.6
2014-Aug-19 19:33N 36°53' E 012°46'2018.6
2014-Aug-19 18:31N 36°47' E 013°09'2518.4
2014-Aug-19 17:10N 36°40' E 013°39'1118.5
2014-Aug-19 16:33N 36°37' E 013°52'1818.4
2014-Aug-19 15:33N 36°31' E 014°14'1818.4
2014-Aug-19 14:34N 36°25' E 014°36'1918.7
2014-Aug-19 13:33N 36°20' E 014°58'1918.8
2014-Aug-19 12:33N 36°14' E 015°20'2018.8
2014-Aug-19 11:30N 36°08' E 015°44'59419.0
2014-Aug-18 04:16N 33°08' E 027°11'3319.4
2014-Aug-18 02:34N 32°58' E 027°49'4519.3
2014-Aug-18 00:15N 32°44' E 028°40'11019.4
2014-Aug-17 18:33N 32°10' E 030°44'1818.2
2014-Aug-17 17:33N 32°05' E 031°05'1818.5
2014-Aug-17 16:33N 31°59' E 031°26'1818.2
2014-Aug-17 15:33N 31°54' E 031°46'1818.2
2014-Aug-17 14:33N 31°42' E 032°02'1818.5
2014-Aug-17 13:33N 31°30' E 032°18'1614.4
2014-Aug-17 12:28N 31°14' E 032°21'9 9.6
2014-Aug-17 11:34N 31°06' E 032°18'1110.5
2014-Aug-17 10:29N 30°54' E 032°19'1010.3
2014-Aug-17 09:33N 30°45' E 032°20'10 9.6
2014-Aug-17 08:29N 30°35' E 032°18'25 8.0
2014-Aug-17 05:22N 30°13' E 032°33'  

Dump ship's entire track history